CheckWX is a tool to help pilots better visualize weather data.  It is not intended as a substitute for an official pre-flight weather briefing.

08:39:32 UTC

KPIA TAF
General Downing - Peoria International Airport
Peoria, Illinois, USA
KPIA 210807Z 2108/2206 13014KT P6SM OVC060 FM210900 12010G18KT P6SM VCSH SCT035 OVC060 FM211100 12012G22KT 5SM -TSRA OVC025CB FM211400 16015G25KT P6SM OVC015 FM211700 21018G28KT P6SM SCT250

Oct-21@
08:00 UTC

Oct-21 @ 08:00 UTC

Oct-21@
09:00 UTC

Oct-21 @ 09:00 UTC

KPIA 210807Z 2108/2206 13014KT P6SM OVC060
Wind
  • 130° at 14 KTS
Cloud Levels
  • Overcast at 6,000' AGL

Oct-21@
09:00 UTC

Oct-21 @ 09:00 UTC

Oct-21@
11:00 UTC

Oct-21 @ 11:00 UTC

FM210900 12010G18KT P6SM VCSH SCT035 OVC060

From

From Standard forecast or significant change

Wind
  • 120° at 10 KTS
  • {Gusting to 18 KTS
Cloud Levels
  • Scattered at 3,500' AGL
  • Overcast at 6,000' AGL

Oct-21@
11:00 UTC

Oct-21 @ 11:00 UTC

Oct-21@
14:00 UTC

Oct-21 @ 14:00 UTC

FM211100 12012G22KT 5SM -TSRA OVC025CB

From

From Standard forecast or significant change

Wind
  • 120° at 12 KTS
  • {Gusting to 22 KTS
Conditions
Light Thunderstorm, Light Rain
Cloud Levels
  • Overcast at 2,500' AGL

Oct-21@
14:00 UTC

Oct-21 @ 14:00 UTC

Oct-21@
17:00 UTC

Oct-21 @ 17:00 UTC

FM211400 16015G25KT P6SM OVC015

From

From Standard forecast or significant change

Wind
  • 160° at 15 KTS
  • {Gusting to 25 KTS
Cloud Levels
  • Overcast at 1,500' AGL

Oct-21@
17:00 UTC

Oct-21 @ 17:00 UTC

Oct-22@
06:00 UTC

Oct-22 @ 06:00 UTC

FM211700 21018G28KT P6SM SCT250

From

From Standard forecast or significant change

Wind
  • 210° at 18 KTS
  • {Gusting to 28 KTS
Cloud Levels
  • Scattered at 25,000' AGL